createdAt,value
2022-09-14T00:01:25.421Z,99992.81
2022-09-14T00:03:58.359Z,99984.72
2022-09-14T00:06:25.901Z,99981.91
2022-09-14T00:08:54.515Z,99979.69
2022-09-14T00:11:23.348Z,99979.38
2022-09-14T00:13:52.068Z,99982.09
2022-09-14T00:16:45.058Z,99981.31
2022-09-14T00:19:24.900Z,99974.38
2022-09-14T00:21:59.516Z,99974.06
2022-09-14T00:24:30.018Z,99975.47
2022-09-14T00:26:56.623Z,99976.31
2022-09-14T00:29:24.039Z,99964.56
2022-09-14T00:31:51.156Z,99966.53
2022-09-14T00:34:17.991Z,99953.97
2022-09-14T00:36:47.286Z,99948.31
2022-09-14T00:39:14.638Z,99947.75
2022-09-14T00:41:43.478Z,99935.75
2022-09-14T00:44:09.948Z,99941.03
2022-09-14T00:46:42.421Z,99930.16
2022-09-14T00:49:16.604Z,99935.19
2022-09-14T00:51:57.114Z,99935.97
2022-09-14T00:54:23.985Z,99925.09
2022-09-14T00:56:51.541Z,99918.09
2022-09-14T00:59:23.955Z,99919.53
2022-09-14T01:01:50.875Z,99920.91
2022-09-14T01:04:17.687Z,99915.59
2022-09-14T01:06:53.434Z,99908.91
2022-09-14T01:09:40.755Z,99908.91
2022-09-14T01:12:13.643Z,99899.41
2022-09-14T01:14:56.019Z,99896.00
2022-09-14T01:17:22.647Z,99896.91
2022-09-14T01:20:07.788Z,99893.47
2022-09-14T01:22:44.314Z,99902.47
2022-09-14T01:25:33.531Z,99902.19
2022-09-14T01:28:05.256Z,99900.81
2022-09-14T01:30:34.645Z,99906.09
2022-09-14T01:33:16.689Z,99898.53
2022-09-14T01:36:12.744Z,99899.09
2022-09-14T01:38:47.156Z,99896.56
2022-09-14T01:41:20.342Z,99887.38
2022-09-14T01:43:54.130Z,99894.09
2022-09-14T01:46:29.711Z,99886.25
2022-09-14T01:49:25.761Z,99880.94
2022-09-14T01:51:58.842Z,99877.84
2022-09-14T01:54:39.186Z,99881.19
2022-09-14T01:57:20.695Z,99887.34
2022-09-14T01:59:50.779Z,99882.84
2022-09-14T02:02:28.437Z,99875.28
2022-09-14T02:05:07.503Z,99871.69
2022-09-14T02:07:35.848Z,99879.25
2022-09-14T02:10:04.794Z,99873.94
2022-09-14T02:12:31.698Z,99878.94
2022-09-14T02:14:58.261Z,99875.59
2022-09-14T02:17:24.959Z,99868.94
2022-09-14T02:20:01.556Z,99870.59
2022-09-14T02:22:30.154Z,99863.31
2022-09-14T02:24:57.745Z,99861.63
2022-09-14T02:27:25.349Z,99863.78
2022-09-14T02:29:52.535Z,99864.03
2022-09-14T02:32:47.783Z,99871.03
2022-09-14T02:35:20.614Z,99859.84
2022-09-14T02:38:01.219Z,99860.72
2022-09-14T02:40:49.700Z,99864.97
2022-09-14T02:43:31.364Z,99852.66
2022-09-14T02:46:16.388Z,99854.94
2022-09-14T02:48:58.554Z,99845.63
2022-09-14T02:51:29.989Z,99850.94
2022-09-14T02:54:05.491Z,99850.66
2022-09-14T02:56:32.786Z,99854.28
2022-09-14T02:58:59.369Z,99853.75
2022-09-14T03:01:26.365Z,99847.59
2022-09-14T03:03:53.013Z,99853.16
2022-09-14T03:06:19.779Z,99844.53
2022-09-14T03:08:46.349Z,99840.69
2022-09-14T03:11:13.037Z,99837.00
2022-09-14T03:13:39.601Z,99834.75
2022-09-14T03:16:08.593Z,99836.34
2022-09-14T03:18:36.494Z,99829.72
2022-09-14T03:21:11.902Z,99835.34
2022-09-14T03:23:39.292Z,99827.44
2022-09-14T03:26:11.311Z,99834.69
2022-09-14T03:28:38.311Z,99834.09
2022-09-14T03:31:07.090Z,99823.56
2022-09-14T03:33:34.037Z,99833.91
2022-09-14T03:36:01.340Z,99825.19
2022-09-14T03:38:29.992Z,99816.06
2022-09-14T03:40:58.022Z,99815.81
2022-09-14T03:43:24.693Z,99801.50
2022-09-14T03:45:51.191Z,99799.28
2022-09-14T03:48:17.808Z,99793.38
2022-09-14T03:50:44.901Z,99798.38
2022-09-14T03:53:11.644Z,99801.22
2022-09-14T03:55:40.566Z,99804.88
2022-09-14T03:58:07.156Z,99811.50
2022-09-14T04:00:33.689Z,99812.31
2022-09-14T04:03:00.535Z,99809.53
2022-09-14T04:05:27.105Z,99807.34
2022-09-14T04:07:53.677Z,99803.97
2022-09-14T04:10:20.352Z,99803.34
2022-09-14T04:12:47.126Z,99800.31
2022-09-14T04:15:13.671Z,99792.56
2022-09-14T04:17:40.593Z,99801.38
2022-09-14T04:20:08.050Z,99800.09
2022-09-14T04:22:34.633Z,99794.38
2022-09-14T04:25:01.360Z,99806.38
2022-09-14T04:27:28.059Z,99803.72
2022-09-14T04:29:54.584Z,99804.06
2022-09-14T04:32:21.281Z,99801.13
2022-09-14T04:34:49.055Z,99796.78
2022-09-14T04:37:15.620Z,99792.72
2022-09-14T04:39:42.393Z,99803.41
2022-09-14T04:42:09.025Z,99808.25
2022-09-14T04:44:35.626Z,99806.31
2022-09-14T04:47:02.187Z,99820.53
2022-09-14T04:49:28.700Z,99812.50
2022-09-14T04:51:55.239Z,99796.91
2022-09-14T04:54:22.057Z,99798.03
2022-09-14T04:56:48.840Z,99798.50
2022-09-14T04:59:15.909Z,99807.84
2022-09-14T05:01:44.638Z,99801.06
2022-09-14T05:04:12.015Z,99806.09
2022-09-14T05:06:40.559Z,99806.09
2022-09-14T05:09:13.024Z,99806.53
2022-09-14T05:11:40.171Z,99805.38
2022-09-14T05:14:06.923Z,99806.84
2022-09-14T05:16:37.913Z,99817.28
2022-09-14T05:19:07.239Z,99804.41
2022-09-14T05:21:35.919Z,99812.53
2022-09-14T05:24:05.751Z,99819.06
2022-09-14T05:26:33.118Z,99818.75
2022-09-14T05:29:01.555Z,99819.41
2022-09-14T05:31:29.160Z,99817.84
2022-09-14T05:33:55.979Z,99824.47
2022-09-14T05:36:23.222Z,99819.59
2022-09-14T05:38:50.218Z,99816.13
2022-09-14T05:41:17.084Z,99814.78
2022-09-14T05:43:44.098Z,99814.81
2022-09-14T05:46:12.993Z,99811.19
2022-09-14T05:48:40.403Z,99818.34
2022-09-14T05:51:11.737Z,99825.16
2022-09-14T05:53:38.381Z,99807.84
2022-09-14T05:56:07.616Z,99817.66
2022-09-14T05:58:35.529Z,99816.41
2022-09-14T06:01:09.945Z,99823.06
2022-09-14T06:03:37.046Z,99829.50
2022-09-14T06:06:05.483Z,99824.84
2022-09-14T06:08:32.225Z,99832.38
2022-09-14T06:11:11.103Z,99836.59
2022-09-14T06:13:38.118Z,99842.75
2022-09-14T06:16:14.237Z,99837.69
2022-09-14T06:18:42.086Z,99837.94
2022-09-14T06:21:10.348Z,99845.72
2022-09-14T06:23:37.335Z,99848.09
2022-09-14T06:26:05.116Z,99857.63
2022-09-14T06:28:32.877Z,99869.59
2022-09-14T06:31:00.230Z,99876.50
2022-09-14T06:33:26.960Z,99877.44
2022-09-14T06:35:57.546Z,99888.66
2022-09-14T06:38:25.049Z,99899.78
2022-09-14T06:40:56.962Z,99901.72
2022-09-14T06:43:24.890Z,99905.88
2022-09-14T06:46:04.523Z,99915.19
2022-09-14T06:48:34.569Z,99917.38
2022-09-14T06:51:14.660Z,99933.28
2022-09-14T06:53:41.588Z,99933.97
2022-09-14T06:56:08.137Z,99940.69
2022-09-14T06:58:34.772Z,99952.56
2022-09-14T07:01:05.988Z,99954.47
2022-09-14T07:03:35.413Z,99957.78
2022-09-14T07:06:10.386Z,99967.38
2022-09-14T07:08:38.628Z,99961.91
2022-09-14T07:11:07.376Z,99971.66
2022-09-14T07:13:34.500Z,99970.91
2022-09-14T07:16:03.254Z,99962.09
2022-09-14T07:18:34.047Z,99973.34
2022-09-14T07:21:05.751Z,99972.84
2022-09-14T07:23:33.787Z,99979.91
2022-09-14T07:26:09.338Z,99979.66
2022-09-14T07:28:37.290Z,99980.06
2022-09-14T07:31:05.634Z,99982.25
2022-09-14T07:33:32.695Z,99979.38
2022-09-14T07:36:10.296Z,99968.91
2022-09-14T07:38:51.706Z,99976.44
2022-09-14T07:41:26.930Z,99969.44
2022-09-14T07:43:56.679Z,99965.31
2022-09-14T07:46:23.941Z,99963.69
2022-09-14T07:48:58.693Z,99963.59
2022-09-14T07:51:26.406Z,99971.97
2022-09-14T07:53:53.509Z,99973.75
2022-09-14T07:56:21.707Z,99978.81
2022-09-14T07:58:53.967Z,99979.09
2022-09-14T08:01:22.410Z,99975.44
2022-09-14T08:03:49.562Z,99972.63
2022-09-14T08:06:22.623Z,99965.19
2022-09-14T08:08:51.700Z,99962.28
2022-09-14T08:11:22.384Z,99969.25
2022-09-14T08:13:57.515Z,99965.59
2022-09-14T08:16:25.821Z,99956.94
2022-09-14T08:19:00.168Z,99960.44
2022-09-14T08:21:28.212Z,99960.22
2022-09-14T08:23:55.603Z,99954.09
2022-09-14T08:26:24.250Z,99949.19
2022-09-14T08:28:52.193Z,99947.47
2022-09-14T08:31:21.148Z,99940.75
2022-09-14T08:33:50.848Z,99934.03
2022-09-14T08:36:20.253Z,99941.00
2022-09-14T08:38:47.262Z,99936.41
2022-09-14T08:41:44.888Z,99935.94
2022-09-14T08:44:11.406Z,99938.59
2022-09-14T08:46:59.684Z,99937.66
2022-09-14T08:50:00.358Z,99933.78
2022-09-14T08:52:29.985Z,99933.78
2022-09-14T08:55:00.145Z,99934.53
2022-09-14T08:57:49.914Z,99944.97
2022-09-14T09:00:21.493Z,99926.78
2022-09-14T09:03:05.740Z,99929.91
2022-09-14T09:05:49.030Z,99934.09
2022-09-14T09:08:43.747Z,99932.91
2022-09-14T09:11:18.603Z,99935.19
2022-09-14T09:13:46.784Z,99933.22
2022-09-14T09:16:19.115Z,99938.38
2022-09-14T09:18:50.061Z,99941.44
2022-09-14T09:21:23.799Z,99936.22
2022-09-14T09:23:50.738Z,99932.25
2022-09-14T09:26:32.212Z,99920.00
2022-09-14T09:29:01.517Z,99922.97
2022-09-14T09:31:44.302Z,99924.78
2022-09-14T09:34:30.070Z,99923.00
2022-09-14T09:37:23.033Z,99928.91
2022-09-14T09:39:51.117Z,99929.28
2022-09-14T09:42:24.358Z,99933.22
2022-09-14T09:45:04.033Z,99927.75
2022-09-14T09:47:51.226Z,99934.72
2022-09-14T09:50:21.645Z,99927.81
2022-09-14T09:52:51.066Z,99935.41
2022-09-14T09:55:22.643Z,99928.94
2022-09-14T09:57:49.395Z,99938.34
2022-09-14T10:00:24.738Z,99945.31
2022-09-14T10:02:52.072Z,99943.63
2022-09-14T10:05:23.723Z,99943.38
2022-09-14T10:07:55.305Z,99931.56
2022-09-14T10:10:34.103Z,99926.84
2022-09-14T10:13:01.886Z,99931.94
2022-09-14T10:15:31.711Z,99944.97
2022-09-14T10:18:14.074Z,99944.72
2022-09-14T10:20:45.344Z,99941.94
2022-09-14T10:23:17.725Z,99945.41
2022-09-14T10:26:11.362Z,99935.41
2022-09-14T10:28:43.512Z,99938.19
2022-09-14T10:31:20.974Z,99932.75
2022-09-14T10:33:51.913Z,99931.47
2022-09-14T10:36:21.157Z,99932.41
2022-09-14T10:38:55.047Z,99932.63
2022-09-14T10:41:27.053Z,99925.06
2022-09-14T10:44:09.068Z,99923.31
2022-09-14T10:47:12.245Z,99920.31
2022-09-14T10:49:57.323Z,99924.31
2022-09-14T10:52:30.034Z,99911.69
2022-09-14T10:55:19.751Z,99911.88
2022-09-14T10:58:04.179Z,99915.31
2022-09-14T11:00:36.788Z,99915.41
2022-09-14T11:03:19.802Z,99908.91
2022-09-14T11:05:52.187Z,99910.50
2022-09-14T11:08:32.885Z,99904.72
2022-09-14T11:11:37.810Z,99901.75
2022-09-14T11:14:29.380Z,99896.25
2022-09-14T11:17:37.698Z,99895.78
2022-09-14T11:20:10.471Z,99892.06
2022-09-14T11:23:03.306Z,99891.50
2022-09-14T11:25:42.124Z,99902.66
2022-09-14T11:28:27.678Z,99916.59
2022-09-14T11:31:30.214Z,99908.41
2022-09-14T11:34:11.074Z,99901.75
2022-09-14T11:36:44.478Z,99909.66
2022-09-14T11:39:17.018Z,99910.34
2022-09-14T11:41:59.630Z,99903.00
2022-09-14T11:44:39.637Z,99898.44
2022-09-14T11:47:20.735Z,99901.53
2022-09-14T11:50:14.057Z,99904.47
2022-09-14T11:52:40.841Z,99900.03
2022-09-14T11:55:15.972Z,99890.31
2022-09-14T11:57:45.831Z,99887.50
2022-09-14T12:00:24.554Z,99887.97
2022-09-14T12:03:33.291Z,99881.59
2022-09-14T12:06:28.573Z,99884.34
2022-09-14T12:08:55.227Z,99884.44
2022-09-14T12:11:31.213Z,99869.59
2022-09-14T12:14:29.635Z,99871.38
2022-09-14T12:17:37.834Z,99863.44
2022-09-14T12:20:29.370Z,99866.47
2022-09-14T12:23:26.431Z,99858.31
2022-09-14T12:26:13.324Z,99857.66
2022-09-14T12:28:52.536Z,99865.16
2022-09-14T12:31:35.011Z,99866.06
2022-09-14T12:34:20.259Z,99877.63
2022-09-14T12:36:46.890Z,99875.44
2022-09-14T12:39:23.674Z,99871.09
2022-09-14T12:41:50.214Z,99868.75
2022-09-14T12:44:56.011Z,99867.06
2022-09-14T12:47:25.659Z,99875.63
2022-09-14T12:49:54.153Z,99867.38
2022-09-14T12:52:36.248Z,99863.47
2022-09-14T12:55:26.131Z,99861.13
2022-09-14T12:58:12.198Z,99853.44
2022-09-14T13:00:58.395Z,99861.41
2022-09-14T13:04:00.793Z,99861.41
2022-09-14T13:06:35.400Z,99857.06
2022-09-14T13:09:06.329Z,99858.03
2022-09-14T13:11:41.037Z,99850.75
2022-09-14T13:14:19.555Z,99846.06
2022-09-14T13:16:50.182Z,99845.88
2022-09-14T13:19:24.058Z,99842.97
2022-09-14T13:21:53.852Z,99839.59
2022-09-14T13:24:24.342Z,99842.47
2022-09-14T13:26:52.195Z,99843.75
2022-09-14T13:29:18.735Z,99841.22
2022-09-14T13:31:45.835Z,99829.00
2022-09-14T13:34:22.869Z,99832.56
2022-09-14T13:36:50.059Z,99834.25
2022-09-14T13:39:24.540Z,99830.81
2022-09-14T13:41:52.183Z,99826.78
2022-09-14T13:44:25.126Z,99829.16
2022-09-14T13:46:52.268Z,99831.13
2022-09-14T13:49:19.172Z,99829.03
2022-09-14T13:51:45.842Z,99824.81
2022-09-14T13:54:36.201Z,99810.56
2022-09-14T13:57:13.377Z,99814.91
2022-09-14T14:00:07.954Z,99810.63
2022-09-14T14:02:36.771Z,99819.63
2022-09-14T14:05:05.009Z,99809.03
2022-09-14T14:07:36.294Z,99806.28
2022-09-14T14:10:04.541Z,99807.44
2022-09-14T14:12:39.617Z,99803.25
2022-09-14T14:15:26.144Z,99802.94
2022-09-14T14:17:54.139Z,99804.03
2022-09-14T14:20:26.577Z,99816.31
2022-09-14T14:23:10.523Z,99810.84
2022-09-14T14:25:45.854Z,99795.91
2022-09-14T14:28:28.537Z,99801.03
2022-09-14T14:30:57.426Z,99794.31
2022-09-14T14:33:25.079Z,99790.53
2022-09-14T14:35:54.268Z,99799.44
2022-09-14T14:38:23.260Z,99792.22
2022-09-14T14:40:51.910Z,99795.22
2022-09-14T14:43:21.717Z,99794.06
2022-09-14T14:45:48.721Z,99789.78
2022-09-14T14:48:15.444Z,99786.91
2022-09-14T14:50:42.205Z,99793.28
2022-09-14T14:53:09.053Z,99783.47
2022-09-14T14:55:37.478Z,99786.16
2022-09-14T14:58:07.111Z,99781.50
2022-09-14T15:00:35.954Z,99779.34
2022-09-14T15:03:02.934Z,99785.06
2022-09-14T15:05:30.954Z,99782.88
2022-09-14T15:07:57.957Z,99774.88
2022-09-14T15:10:26.484Z,99773.19
2022-09-14T15:12:53.061Z,99767.22
2022-09-14T15:15:23.990Z,99763.34
2022-09-14T15:17:52.272Z,99758.28
2022-09-14T15:20:19.895Z,99765.13
2022-09-14T15:22:47.668Z,99767.56
2022-09-14T15:25:16.072Z,99760.13
2022-09-14T15:27:43.117Z,99762.59
2022-09-14T15:30:11.453Z,99772.97
2022-09-14T15:32:38.850Z,99772.88
2022-09-14T15:35:07.689Z,99776.34
2022-09-14T15:37:34.399Z,99772.13
2022-09-14T15:40:01.171Z,99769.75
2022-09-14T15:42:28.052Z,99773.72
2022-09-14T15:44:54.735Z,99774.97
2022-09-14T15:47:21.659Z,99774.81
2022-09-14T15:49:52.626Z,99775.41
2022-09-14T15:52:19.554Z,99778.00
2022-09-14T15:54:46.213Z,99781.84
2022-09-14T15:57:13.493Z,99774.97
2022-09-14T15:59:40.637Z,99776.22
2022-09-14T16:02:07.783Z,99776.13
2022-09-14T16:04:38.448Z,99768.75
2022-09-14T16:07:09.593Z,99766.75
2022-09-14T16:09:38.864Z,99766.66
2022-09-14T16:12:06.792Z,99767.59
2022-09-14T16:14:33.534Z,99785.00
2022-09-14T16:17:01.549Z,99779.28
2022-09-14T16:19:28.566Z,99785.72
2022-09-14T16:21:55.466Z,99795.00
2022-09-14T16:24:25.348Z,99794.16
2022-09-14T16:26:52.594Z,99800.59
2022-09-14T16:29:21.127Z,99802.38
2022-09-14T16:31:48.732Z,99799.59
2022-09-14T16:34:27.802Z,99796.16
2022-09-14T16:37:13.519Z,99804.66
2022-09-14T16:39:41.247Z,99796.66
2022-09-14T16:42:07.893Z,99799.38
2022-09-14T16:44:34.655Z,99804.06
2022-09-14T16:47:01.373Z,99797.78
2022-09-14T16:49:28.592Z,99798.69
2022-09-14T16:51:56.231Z,99803.88
2022-09-14T16:54:24.349Z,99789.94
2022-09-14T16:56:51.535Z,99792.72
2022-09-14T16:59:19.268Z,99787.66
2022-09-14T17:01:53.427Z,99784.38
2022-09-14T17:04:21.969Z,99781.66
2022-09-14T17:06:50.341Z,99786.66
2022-09-14T17:09:23.161Z,99795.47
2022-09-14T17:11:50.143Z,99802.72
2022-09-14T17:14:20.210Z,99804.31
2022-09-14T17:16:47.619Z,99784.72
2022-09-14T17:19:14.741Z,99791.19
2022-09-14T17:21:43.383Z,99808.94
2022-09-14T17:24:11.085Z,99815.81
2022-09-14T17:26:38.186Z,99809.28
2022-09-14T17:29:06.116Z,99802.72
2022-09-14T17:31:36.056Z,99807.75
2022-09-14T17:34:04.927Z,99811.47
2022-09-14T17:36:32.087Z,99811.31
2022-09-14T17:39:09.157Z,99811.38
2022-09-14T17:41:38.888Z,99817.84
2022-09-14T17:44:06.853Z,99805.59
2022-09-14T17:46:34.117Z,99817.59
2022-09-14T17:49:03.519Z,99821.53
2022-09-14T17:51:31.161Z,99809.59
2022-09-14T17:53:58.729Z,99815.66
2022-09-14T17:56:26.871Z,99812.47
2022-09-14T17:59:10.094Z,99809.44
2022-09-14T18:01:36.705Z,99809.53
2022-09-14T18:04:06.681Z,99817.75
2022-09-14T18:06:36.816Z,99819.53
2022-09-14T18:09:06.570Z,99816.34
2022-09-14T18:11:33.411Z,99815.22
2022-09-14T18:14:00.126Z,99818.25
2022-09-14T18:16:27.560Z,99811.31
2022-09-14T18:18:54.693Z,99818.63
2022-09-14T18:21:21.251Z,99808.94
2022-09-14T18:23:51.709Z,99803.56
2022-09-14T18:26:19.094Z,99799.66
2022-09-14T18:28:46.313Z,99805.22
2022-09-14T18:31:16.069Z,99797.47
2022-09-14T18:33:48.137Z,99800.84
2022-09-14T18:36:15.198Z,99802.81
2022-09-14T18:38:42.653Z,99805.75
2022-09-14T18:41:11.302Z,99808.09
2022-09-14T18:43:41.855Z,99804.75
2022-09-14T18:46:08.864Z,99802.03
2022-09-14T18:48:35.485Z,99817.34
2022-09-14T18:51:04.479Z,99814.31
2022-09-14T18:53:31.933Z,99812.81
2022-09-14T18:56:07.401Z,99808.19
2022-09-14T18:58:38.217Z,99820.22
2022-09-14T19:01:05.478Z,99813.66
2022-09-14T19:03:32.808Z,99824.09
2022-09-14T19:06:05.579Z,99816.94
2022-09-14T19:08:32.100Z,99811.63
2022-09-14T19:11:04.734Z,99812.66
2022-09-14T19:13:31.318Z,99816.34
2022-09-14T19:15:57.885Z,99812.13
2022-09-14T19:18:24.475Z,99813.75
2022-09-14T19:21:06.011Z,99813.91
2022-09-14T19:23:33.623Z,99806.81
2022-09-14T19:26:12.526Z,99805.25
2022-09-14T19:28:39.275Z,99803.66
2022-09-14T19:31:17.917Z,99814.56
2022-09-14T19:33:45.884Z,99817.06
2022-09-14T19:36:17.274Z,99820.44
2022-09-14T19:38:43.880Z,99829.16
2022-09-14T19:41:10.586Z,99825.19
2022-09-14T19:43:37.160Z,99827.63
2022-09-14T19:46:04.481Z,99829.63
2022-09-14T19:48:31.951Z,99823.84
2022-09-14T19:51:03.831Z,99821.41
2022-09-14T19:53:32.323Z,99826.09
2022-09-14T19:55:59.089Z,99831.91
2022-09-14T19:58:26.245Z,99831.41
2022-09-14T20:00:54.493Z,99830.28
2022-09-14T20:03:21.177Z,99828.19
2022-09-14T20:05:47.759Z,99828.66
2022-09-14T20:08:14.402Z,99840.78
2022-09-14T20:10:41.076Z,99840.66
2022-09-14T20:13:07.629Z,99835.44
2022-09-14T20:15:34.219Z,99836.34
2022-09-14T20:18:01.020Z,99837.09
2022-09-14T20:20:27.616Z,99834.94
2022-09-14T20:22:54.221Z,99834.06
2022-09-14T20:25:20.904Z,99830.72
2022-09-14T20:27:47.925Z,99830.75
2022-09-14T20:30:14.534Z,99828.69
2022-09-14T20:32:41.833Z,99829.97
2022-09-14T20:35:09.603Z,99836.63
2022-09-14T20:37:36.139Z,99834.03
2022-09-14T20:40:02.954Z,99840.97
2022-09-14T20:42:29.564Z,99838.38
2022-09-14T20:44:56.127Z,99844.03
2022-09-14T20:47:23.474Z,99834.38
2022-09-14T20:49:50.127Z,99848.84
2022-09-14T20:52:16.830Z,99854.75
2022-09-14T20:54:43.354Z,99857.59
2022-09-14T20:57:09.931Z,99853.63
2022-09-14T20:59:36.447Z,99852.50
2022-09-14T21:02:05.545Z,99858.28
2022-09-14T21:04:34.056Z,99860.50
2022-09-14T21:07:00.659Z,99862.31
2022-09-14T21:09:27.230Z,99862.09
2022-09-14T21:11:54.315Z,99866.03
2022-09-14T21:14:21.704Z,99869.31
2022-09-14T21:16:51.757Z,99870.75
2022-09-14T21:19:19.351Z,99869.88
2022-09-14T21:21:47.262Z,99872.75
2022-09-14T21:24:15.351Z,99870.59
2022-09-14T21:26:43.365Z,99873.66
2022-09-14T21:29:20.707Z,99872.22
2022-09-14T21:31:48.598Z,99874.94
2022-09-14T21:34:15.721Z,99872.91
2022-09-14T21:36:44.819Z,99880.34
2022-09-14T21:39:14.902Z,99887.47
2022-09-14T21:41:42.765Z,99885.25
2022-09-14T21:44:09.375Z,99886.94
2022-09-14T21:46:36.618Z,99888.66
2022-09-14T21:49:03.480Z,99890.94
2022-09-14T21:51:32.930Z,99894.97
2022-09-14T21:54:01.920Z,99898.91
2022-09-14T21:56:31.765Z,99898.16
2022-09-14T21:59:00.734Z,99887.47
2022-09-14T22:01:28.481Z,99894.63
2022-09-14T22:03:56.128Z,99888.69
2022-09-14T22:06:25.293Z,99892.03
2022-09-14T22:08:52.359Z,99895.63
2022-09-14T22:11:23.169Z,99888.50
2022-09-14T22:13:58.673Z,99888.88
2022-09-14T22:16:27.039Z,99879.84
2022-09-14T22:18:56.618Z,99887.47
2022-09-14T22:21:25.026Z,99890.94
2022-09-14T22:23:55.145Z,99890.09
2022-09-14T22:26:23.188Z,99889.00
2022-09-14T22:28:51.381Z,99889.16
2022-09-14T22:31:20.466Z,99895.91
2022-09-14T22:33:47.666Z,99899.94
2022-09-14T22:36:17.671Z,99891.22
2022-09-14T22:38:46.414Z,99891.38
2022-09-14T22:41:17.566Z,99897.81
2022-09-14T22:43:45.199Z,99895.81
2022-09-14T22:46:12.868Z,99894.88
2022-09-14T22:48:40.087Z,99883.78
2022-09-14T22:51:08.533Z,99890.59
2022-09-14T22:53:35.115Z,99889.22
2022-09-14T22:56:26.987Z,99893.88
2022-09-14T22:58:54.337Z,99888.16
2022-09-14T23:01:24.738Z,99882.03
2022-09-14T23:03:58.057Z,99884.22
2022-09-14T23:06:40.066Z,99892.38
2022-09-14T23:09:08.753Z,99890.25
2022-09-14T23:11:35.343Z,99900.59
2022-09-14T23:14:02.588Z,99904.19
2022-09-14T23:16:30.521Z,99902.72
2022-09-14T23:18:59.757Z,99900.44
2022-09-14T23:21:27.573Z,99895.88
2022-09-14T23:23:56.683Z,99897.81
2022-09-14T23:26:23.701Z,99893.63
2022-09-14T23:29:02.680Z,99889.81
2022-09-14T23:31:30.445Z,99906.09
2022-09-14T23:33:59.050Z,99898.13
2022-09-14T23:36:26.468Z,99902.47
2022-09-14T23:38:53.248Z,99887.03
2022-09-14T23:41:21.536Z,99889.22
2022-09-14T23:43:48.179Z,99893.56
2022-09-14T23:46:15.622Z,99894.06
2022-09-14T23:48:42.731Z,99897.06
2022-09-14T23:51:10.293Z,99887.88
2022-09-14T23:53:37.819Z,99893.78
2022-09-14T23:56:05.164Z,99892.44
2022-09-14T23:58:31.864Z,99894.63
